sensor_id;sensor_type;location;lat;lon;timestamp;pressure;altitude;pressure_sealevel;temperature;humidity
31299;BME280;17927;52.350;13.402;2022-07-19T00:00:18;101596.25;;;24.52;36.35
31299;BME280;17927;52.350;13.402;2022-07-19T00:02:43;101603.25;;;24.47;36.43
31299;BME280;17927;52.350;13.402;2022-07-19T00:05:10;101600.31;;;24.42;36.34
31299;BME280;17927;52.350;13.402;2022-07-19T00:07:36;101593.75;;;24.37;36.76
31299;BME280;17927;52.350;13.402;2022-07-19T00:10:03;101589.72;;;24.32;36.96
31299;BME280;17927;52.350;13.402;2022-07-19T00:12:29;101595.00;;;24.27;36.95
31299;BME280;17927;52.350;13.402;2022-07-19T00:14:54;101597.56;;;24.22;37.13
31299;BME280;17927;52.350;13.402;2022-07-19T00:17:20;101605.44;;;24.18;36.98
31299;BME280;17927;52.350;13.402;2022-07-19T00:19:45;101592.28;;;24.14;37.03
31299;BME280;17927;52.350;13.402;2022-07-19T00:22:10;101598.63;;;24.08;37.19
31299;BME280;17927;52.350;13.402;2022-07-19T00:24:35;101591.00;;;24.03;36.78
31299;BME280;17927;52.350;13.402;2022-07-19T00:27:01;101591.88;;;23.97;37.42
31299;BME280;17927;52.350;13.402;2022-07-19T00:29:26;101582.06;;;23.94;37.11
31299;BME280;17927;52.350;13.402;2022-07-19T00:31:51;101590.75;;;23.91;37.48
31299;BME280;17927;52.350;13.402;2022-07-19T00:34:16;101590.56;;;23.86;37.47
31299;BME280;17927;52.350;13.402;2022-07-19T00:36:42;101590.97;;;23.83;37.57
31299;BME280;17927;52.350;13.402;2022-07-19T00:39:07;101595.63;;;23.76;37.42
31299;BME280;17927;52.350;13.402;2022-07-19T00:41:41;101594.56;;;23.70;38.41
31299;BME280;17927;52.350;13.402;2022-07-19T00:44:07;101596.25;;;23.64;38.12
31299;BME280;17927;52.350;13.402;2022-07-19T00:46:32;101601.53;;;23.59;38.00
31299;BME280;17927;52.350;13.402;2022-07-19T00:48:58;101600.28;;;23.55;38.26
31299;BME280;17927;52.350;13.402;2022-07-19T00:51:23;101597.28;;;23.50;38.35
31299;BME280;17927;52.350;13.402;2022-07-19T00:53:49;101594.94;;;23.47;38.59
31299;BME280;17927;52.350;13.402;2022-07-19T00:56:16;101596.44;;;23.42;38.26
31299;BME280;17927;52.350;13.402;2022-07-19T00:58:42;101595.16;;;23.38;38.56
31299;BME280;17927;52.350;13.402;2022-07-19T01:01:08;101593.03;;;23.34;38.46
31299;BME280;17927;52.350;13.402;2022-07-19T01:03:35;101598.09;;;23.30;38.40
31299;BME280;17927;52.350;13.402;2022-07-19T01:06:01;101597.88;;;23.25;39.07
31299;BME280;17927;52.350;13.402;2022-07-19T01:08:27;101596.78;;;23.19;38.77
31299;BME280;17927;52.350;13.402;2022-07-19T01:10:52;101598.41;;;23.14;38.85
31299;BME280;17927;52.350;13.402;2022-07-19T01:13:19;101611.13;;;23.08;38.92
31299;BME280;17927;52.350;13.402;2022-07-19T01:15:44;101616.59;;;23.01;39.50
31299;BME280;17927;52.350;13.402;2022-07-19T01:18:09;101608.97;;;22.96;39.08
31299;BME280;17927;52.350;13.402;2022-07-19T01:20:35;101615.94;;;22.92;39.81
31299;BME280;17927;52.350;13.402;2022-07-19T01:23:00;101608.28;;;22.88;39.23
31299;BME280;17927;52.350;13.402;2022-07-19T01:25:31;101610.38;;;22.86;39.31
31299;BME280;17927;52.350;13.402;2022-07-19T01:27:56;101605.50;;;22.81;39.78
31299;BME280;17927;52.350;13.402;2022-07-19T01:30:24;101615.88;;;22.79;39.84
31299;BME280;17927;52.350;13.402;2022-07-19T01:32:50;101608.00;;;22.76;40.00
31299;BME280;17927;52.350;13.402;2022-07-19T01:35:16;101607.56;;;22.72;39.88
31299;BME280;17927;52.350;13.402;2022-07-19T01:37:41;101607.13;;;22.69;39.89
31299;BME280;17927;52.350;13.402;2022-07-19T01:40:09;101604.56;;;22.67;39.82
31299;BME280;17927;52.350;13.402;2022-07-19T01:42:35;101606.06;;;22.63;39.48
31299;BME280;17927;52.350;13.402;2022-07-19T01:45:00;101607.50;;;22.59;39.87
31299;BME280;17927;52.350;13.402;2022-07-19T01:47:26;101603.25;;;22.56;39.85
31299;BME280;17927;52.350;13.402;2022-07-19T01:49:51;101600.25;;;22.51;39.91
31299;BME280;17927;52.350;13.402;2022-07-19T01:52:17;101596.00;;;22.48;40.11
31299;BME280;17927;52.350;13.402;2022-07-19T01:54:42;101593.00;;;22.43;39.87
31299;BME280;17927;52.350;13.402;2022-07-19T01:57:07;101594.22;;;22.41;40.06
31299;BME280;17927;52.350;13.402;2022-07-19T01:59:35;101594.41;;;22.39;40.08
31299;BME280;17927;52.350;13.402;2022-07-19T02:02:01;101592.50;;;22.33;39.65
31299;BME280;17927;52.350;13.402;2022-07-19T02:04:26;101589.47;;;22.28;40.04
31299;BME280;17927;52.350;13.402;2022-07-19T02:06:51;101590.09;;;22.23;40.66
31299;BME280;17927;52.350;13.402;2022-07-19T02:09:16;101592.38;;;22.19;40.63
31299;BME280;17927;52.350;13.402;2022-07-19T02:11:42;101590.03;;;22.16;40.52
31299;BME280;17927;52.350;13.402;2022-07-19T02:14:08;101591.09;;;22.15;40.48
31299;BME280;17927;52.350;13.402;2022-07-19T02:16:35;101583.88;;;22.14;40.24
31299;BME280;17927;52.350;13.402;2022-07-19T02:19:00;101583.88;;;22.14;40.33
31299;BME280;17927;52.350;13.402;2022-07-19T02:21:25;101583.44;;;22.11;40.45
31299;BME280;17927;52.350;13.402;2022-07-19T02:23:51;101582.78;;;22.09;40.79
31299;BME280;17927;52.350;13.402;2022-07-19T02:26:16;101583.84;;;22.08;40.54
31299;BME280;17927;52.350;13.402;2022-07-19T02:28:41;101585.06;;;22.05;40.64
31299;BME280;17927;52.350;13.402;2022-07-19T02:31:07;101591.00;;;22.02;40.48
31299;BME280;17927;52.350;13.402;2022-07-19T02:33:32;101595.84;;;22.00;40.88
31299;BME280;17927;52.350;13.402;2022-07-19T02:35:57;101596.03;;;21.98;40.89
31299;BME280;17927;52.350;13.402;2022-07-19T02:38:22;101587.97;;;21.97;40.74
31299;BME280;17927;52.350;13.402;2022-07-19T02:40:48;101588.38;;;21.94;40.59
31299;BME280;17927;52.350;13.402;2022-07-19T02:43:13;101592.56;;;21.89;40.60
31299;BME280;17927;52.350;13.402;2022-07-19T02:45:39;101597.59;;;21.86;40.92
31299;BME280;17927;52.350;13.402;2022-07-19T02:48:04;101591.66;;;21.82;41.35
31299;BME280;17927;52.350;13.402;2022-07-19T02:50:30;101595.84;;;21.78;41.21
31299;BME280;17927;52.350;13.402;2022-07-19T02:52:56;101593.69;;;21.73;41.62
31299;BME280;17927;52.350;13.402;2022-07-19T02:55:21;101589.84;;;21.68;41.72
31299;BME280;17927;52.350;13.402;2022-07-19T02:57:46;101593.63;;;21.67;41.37
31299;BME280;17927;52.350;13.402;2022-07-19T03:00:12;101591.28;;;21.64;41.47
31299;BME280;17927;52.350;13.402;2022-07-19T03:02:38;101583.41;;;21.60;41.81
31299;BME280;17927;52.350;13.402;2022-07-19T03:05:03;101579.81;;;21.60;41.99
31299;BME280;17927;52.350;13.402;2022-07-19T03:07:29;101585.47;;;21.58;42.00
31299;BME280;17927;52.350;13.402;2022-07-19T03:09:54;101577.44;;;21.57;41.78
31299;BME280;17927;52.350;13.402;2022-07-19T03:12:19;101578.69;;;21.54;42.13
31299;BME280;17927;52.350;13.402;2022-07-19T03:14:44;101580.78;;;21.52;42.18
31299;BME280;17927;52.350;13.402;2022-07-19T03:17:10;101576.31;;;21.51;42.25
31299;BME280;17927;52.350;13.402;2022-07-19T03:19:35;101577.38;;;21.50;42.16
31299;BME280;17927;52.350;13.402;2022-07-19T03:22:01;101580.13;;;21.50;41.94
31299;BME280;17927;52.350;13.402;2022-07-19T03:24:26;101585.81;;;21.49;41.84
31299;BME280;17927;52.350;13.402;2022-07-19T03:26:51;101584.75;;;21.50;41.86
31299;BME280;17927;52.350;13.402;2022-07-19T03:29:16;101582.66;;;21.52;42.00
31299;BME280;17927;52.350;13.402;2022-07-19T03:31:42;101581.59;;;21.53;42.01
31299;BME280;17927;52.350;13.402;2022-07-19T03:34:07;101583.31;;;21.54;42.04
31299;BME280;17927;52.350;13.402;2022-07-19T03:36:32;101580.56;;;21.54;42.11
31299;BME280;17927;52.350;13.402;2022-07-19T03:38:57;101578.69;;;21.54;42.45
31299;BME280;17927;52.350;13.402;2022-07-19T03:41:23;101582.09;;;21.56;42.29
31299;BME280;17927;52.350;13.402;2022-07-19T03:43:48;101576.59;;;21.56;42.30
31299;BME280;17927;52.350;13.402;2022-07-19T03:46:13;101578.25;;;21.57;42.66
31299;BME280;17927;52.350;13.402;2022-07-19T03:48:39;101579.13;;;21.58;42.33
31299;BME280;17927;52.350;13.402;2022-07-19T03:51:04;101573.44;;;21.59;42.65
31299;BME280;17927;52.350;13.402;2022-07-19T03:53:30;101585.97;;;21.62;42.82
31299;BME280;17927;52.350;13.402;2022-07-19T03:55:55;101593.19;;;21.63;43.12
31299;BME280;17927;52.350;13.402;2022-07-19T03:58:20;101584.72;;;21.65;42.80
31299;BME280;17927;52.350;13.402;2022-07-19T04:00:45;101589.84;;;21.68;42.75
31299;BME280;17927;52.350;13.402;2022-07-19T04:03:11;101582.91;;;21.72;43.19
31299;BME280;17927;52.350;13.402;2022-07-19T04:05:37;101584.41;;;21.74;43.28
31299;BME280;17927;52.350;13.402;2022-07-19T04:08:02;101579.56;;;21.77;43.51
31299;BME280;17927;52.350;13.402;2022-07-19T04:10:27;101577.25;;;21.80;43.04
31299;BME280;17927;52.350;13.402;2022-07-19T04:12:53;101578.97;;;21.81;43.11
31299;BME280;17927;52.350;13.402;2022-07-19T04:15:18;101579.22;;;21.86;43.30
31299;BME280;17927;52.350;13.402;2022-07-19T04:17:43;101582.41;;;21.90;43.11
31299;BME280;17927;52.350;13.402;2022-07-19T04:20:09;101584.78;;;21.93;43.44
31299;BME280;17927;52.350;13.402;2022-07-19T04:22:34;101589.28;;;22.01;43.30
31299;BME280;17927;52.350;13.402;2022-07-19T04:25:00;101591.44;;;22.05;43.31
31299;BME280;17927;52.350;13.402;2022-07-19T04:27:27;101589.78;;;22.11;43.37
31299;BME280;17927;52.350;13.402;2022-07-19T04:29:52;101585.38;;;22.17;43.19
31299;BME280;17927;52.350;13.402;2022-07-19T04:32:18;101587.34;;;22.23;43.26
31299;BME280;17927;52.350;13.402;2022-07-19T04:34:43;101588.22;;;22.30;43.30
31299;BME280;17927;52.350;13.402;2022-07-19T04:37:08;101595.47;;;22.38;42.84
31299;BME280;17927;52.350;13.402;2022-07-19T04:39:33;101594.50;;;22.46;43.09
31299;BME280;17927;52.350;13.402;2022-07-19T04:41:59;101607.06;;;22.55;43.16
31299;BME280;17927;52.350;13.402;2022-07-19T04:44:24;101606.06;;;22.63;42.68
31299;BME280;17927;52.350;13.402;2022-07-19T04:46:49;101611.19;;;22.73;42.62
31299;BME280;17927;52.350;13.402;2022-07-19T04:49:14;101611.84;;;22.81;42.91
31299;BME280;17927;52.350;13.402;2022-07-19T04:51:40;101610.63;;;22.91;42.37
31299;BME280;17927;52.350;13.402;2022-07-19T04:54:05;101610.44;;;22.99;42.37
31299;BME280;17927;52.350;13.402;2022-07-19T04:56:30;101605.41;;;23.09;42.18
31299;BME280;17927;52.350;13.402;2022-07-19T04:58:55;101611.38;;;23.20;42.21
31299;BME280;17927;52.350;13.402;2022-07-19T05:01:21;101609.09;;;23.30;42.48
31299;BME280;17927;52.350;13.402;2022-07-19T05:03:46;101610.41;;;23.41;42.13
31299;BME280;17927;52.350;13.402;2022-07-19T05:06:11;101610.03;;;23.51;42.08
31299;BME280;17927;52.350;13.402;2022-07-19T05:08:36;101602.19;;;23.61;42.06
31299;BME280;17927;52.350;13.402;2022-07-19T05:11:02;101605.41;;;23.71;41.89
31299;BME280;17927;52.350;13.402;2022-07-19T05:13:27;101605.81;;;23.82;41.91
31299;BME280;17927;52.350;13.402;2022-07-19T05:15:52;101605.19;;;23.93;41.45
31299;BME280;17927;52.350;13.402;2022-07-19T05:18:17;101605.44;;;24.05;41.33
31299;BME280;17927;52.350;13.402;2022-07-19T05:20:43;101599.25;;;24.16;41.54
31299;BME280;17927;52.350;13.402;2022-07-19T05:23:08;101603.28;;;24.27;41.12
31299;BME280;17927;52.350;13.402;2022-07-19T05:25:33;101607.09;;;24.40;40.90
31299;BME280;17927;52.350;13.402;2022-07-19T05:27:58;101603.91;;;24.50;40.95
31299;BME280;17927;52.350;13.402;2022-07-19T05:30:24;101602.63;;;24.59;40.76
31299;BME280;17927;52.350;13.402;2022-07-19T05:32:49;101606.00;;;24.68;40.70
31299;BME280;17927;52.350;13.402;2022-07-19T05:35:14;101610.25;;;24.77;40.15
31299;BME280;17927;52.350;13.402;2022-07-19T05:37:40;101606.16;;;24.86;39.98
31299;BME280;17927;52.350;13.402;2022-07-19T05:40:05;101607.81;;;24.94;39.61
31299;BME280;17927;52.350;13.402;2022-07-19T05:42:31;101613.97;;;25.03;39.55
31299;BME280;17927;52.350;13.402;2022-07-19T05:44:56;101618.38;;;25.11;39.45
31299;BME280;17927;52.350;13.402;2022-07-19T05:47:21;101617.28;;;25.18;39.30
31299;BME280;17927;52.350;13.402;2022-07-19T05:49:46;101615.97;;;25.28;38.69
31299;BME280;17927;52.350;13.402;2022-07-19T05:52:12;101623.81;;;25.37;38.60
31299;BME280;17927;52.350;13.402;2022-07-19T05:54:37;101613.34;;;25.46;38.71
31299;BME280;17927;52.350;13.402;2022-07-19T05:57:02;101623.28;;;25.54;38.37
31299;BME280;17927;52.350;13.402;2022-07-19T05:59:28;101618.97;;;25.65;37.95
31299;BME280;17927;52.350;13.402;2022-07-19T06:01:53;101614.25;;;25.72;37.71
31299;BME280;17927;52.350;13.402;2022-07-19T06:04:18;101625.03;;;25.80;37.33
31299;BME280;17927;52.350;13.402;2022-07-19T06:06:44;101615.84;;;25.87;37.53
31299;BME280;17927;52.350;13.402;2022-07-19T06:09:09;101622.16;;;25.94;37.25
31299;BME280;17927;52.350;13.402;2022-07-19T06:11:37;101621.88;;;26.02;36.79
31299;BME280;17927;52.350;13.402;2022-07-19T06:14:02;101614.34;;;26.09;37.02
31299;BME280;17927;52.350;13.402;2022-07-19T06:16:28;101618.59;;;26.19;37.15
31299;BME280;17927;52.350;13.402;2022-07-19T06:18:53;101611.91;;;26.26;36.83
31299;BME280;17927;52.350;13.402;2022-07-19T06:21:20;101618.84;;;26.36;36.57
31299;BME280;17927;52.350;13.402;2022-07-19T06:23:46;101617.50;;;26.45;36.59
31299;BME280;17927;52.350;13.402;2022-07-19T06:26:11;101621.88;;;26.53;36.78
31299;BME280;17927;52.350;13.402;2022-07-19T06:28:38;101616.66;;;26.63;36.46
31299;BME280;17927;52.350;13.402;2022-07-19T06:31:03;101606.13;;;26.72;36.58
31299;BME280;17927;52.350;13.402;2022-07-19T06:33:29;101609.22;;;26.82;36.40
31299;BME280;17927;52.350;13.402;2022-07-19T06:35:54;101616.16;;;26.92;36.57
31299;BME280;17927;52.350;13.402;2022-07-19T06:38:19;101618.97;;;27.03;36.21
31299;BME280;17927;52.350;13.402;2022-07-19T06:40:45;101608.19;;;27.14;36.10
31299;BME280;17927;52.350;13.402;2022-07-19T06:43:10;101612.31;;;27.23;36.11
31299;BME280;17927;52.350;13.402;2022-07-19T06:45:36;101611.31;;;27.36;36.22
31299;BME280;17927;52.350;13.402;2022-07-19T06:48:01;101612.47;;;27.47;35.70
31299;BME280;17927;52.350;13.402;2022-07-19T06:50:27;101611.03;;;27.56;35.95
31299;BME280;17927;52.350;13.402;2022-07-19T06:52:52;101610.47;;;27.66;36.08
31299;BME280;17927;52.350;13.402;2022-07-19T06:55:18;101612.41;;;27.77;36.01
31299;BME280;17927;52.350;13.402;2022-07-19T06:57:43;101608.81;;;27.89;36.20
31299;BME280;17927;52.350;13.402;2022-07-19T07:00:09;101613.53;;;28.00;36.06
31299;BME280;17927;52.350;13.402;2022-07-19T07:02:38;101618.28;;;28.11;35.43
31299;BME280;17927;52.350;13.402;2022-07-19T07:05:05;101613.22;;;28.20;34.98
31299;BME280;17927;52.350;13.402;2022-07-19T07:07:31;101620.72;;;28.32;35.21
31299;BME280;17927;52.350;13.402;2022-07-19T07:09:56;101613.72;;;28.41;34.97
31299;BME280;17927;52.350;13.402;2022-07-19T07:12:21;101614.16;;;28.50;35.01
31299;BME280;17927;52.350;13.402;2022-07-19T07:14:47;101618.28;;;28.59;34.85
31299;BME280;17927;52.350;13.402;2022-07-19T07:17:12;101613.19;;;28.68;34.80
31299;BME280;17927;52.350;13.402;2022-07-19T07:19:37;101619.00;;;28.78;34.78
31299;BME280;17927;52.350;13.402;2022-07-19T07:22:03;101613.06;;;28.86;34.50
31299;BME280;17927;52.350;13.402;2022-07-19T07:24:28;101618.84;;;28.97;34.23
31299;BME280;17927;52.350;13.402;2022-07-19T07:26:53;101606.00;;;29.08;34.06
31299;BME280;17927;52.350;13.402;2022-07-19T07:29:19;101615.13;;;29.20;33.97
31299;BME280;17927;52.350;13.402;2022-07-19T07:31:44;101613.41;;;29.31;34.05
31299;BME280;17927;52.350;13.402;2022-07-19T07:34:10;101610.00;;;29.41;33.05
31299;BME280;17927;52.350;13.402;2022-07-19T07:36:35;101607.41;;;29.51;33.17
31299;BME280;17927;52.350;13.402;2022-07-19T07:39:00;101612.03;;;29.62;33.05
31299;BME280;17927;52.350;13.402;2022-07-19T07:41:25;101598.88;;;29.75;32.60
31299;BME280;17927;52.350;13.402;2022-07-19T07:43:51;101601.00;;;29.85;32.36
31299;BME280;17927;52.350;13.402;2022-07-19T07:46:16;101598.19;;;29.97;32.13
31299;BME280;17927;52.350;13.402;2022-07-19T07:48:43;101600.03;;;30.08;31.58
31299;BME280;17927;52.350;13.402;2022-07-19T07:51:08;101604.91;;;30.18;31.68
31299;BME280;17927;52.350;13.402;2022-07-19T07:53:34;101595.03;;;30.27;31.34
31299;BME280;17927;52.350;13.402;2022-07-19T07:55:59;101597.97;;;30.37;31.37
31299;BME280;17927;52.350;13.402;2022-07-19T07:58:24;101609.25;;;30.48;31.71
31299;BME280;17927;52.350;13.402;2022-07-19T08:00:49;101602.41;;;30.56;31.25
31299;BME280;17927;52.350;13.402;2022-07-19T08:03:15;101606.47;;;30.65;30.68
31299;BME280;17927;52.350;13.402;2022-07-19T08:05:41;101595.44;;;30.75;30.61
31299;BME280;17927;52.350;13.402;2022-07-19T08:08:06;101600.56;;;30.83;30.66
31299;BME280;17927;52.350;13.402;2022-07-19T08:10:33;101604.84;;;30.91;30.64
31299;BME280;17927;52.350;13.402;2022-07-19T08:13:00;101600.50;;;31.01;30.12
31299;BME280;17927;52.350;13.402;2022-07-19T08:15:25;101601.97;;;31.08;30.32
31299;BME280;17927;52.350;13.402;2022-07-19T08:17:51;101599.84;;;31.16;30.43
31299;BME280;17927;52.350;13.402;2022-07-19T08:20:16;101607.75;;;31.24;30.49
31299;BME280;17927;52.350;13.402;2022-07-19T08:22:41;101608.13;;;31.33;30.45
31299;BME280;17927;52.350;13.402;2022-07-19T08:25:08;101604.84;;;31.41;30.30
31299;BME280;17927;52.350;13.402;2022-07-19T08:27:33;101609.69;;;31.51;29.98
31299;BME280;17927;52.350;13.402;2022-07-19T08:29:59;101611.19;;;31.58;29.58
31299;BME280;17927;52.350;13.402;2022-07-19T08:32:25;101609.59;;;31.68;29.02
31299;BME280;17927;52.350;13.402;2022-07-19T08:34:50;101608.56;;;31.74;28.86
31299;BME280;17927;52.350;13.402;2022-07-19T08:37:15;101611.69;;;31.83;29.15
31299;BME280;17927;52.350;13.402;2022-07-19T08:39:41;101608.44;;;31.91;29.20
31299;BME280;17927;52.350;13.402;2022-07-19T08:42:06;101604.56;;;31.97;29.51
31299;BME280;17927;52.350;13.402;2022-07-19T08:44:34;101595.38;;;32.02;28.57
31299;BME280;17927;52.350;13.402;2022-07-19T08:47:01;101601.84;;;32.08;28.10
31299;BME280;17927;52.350;13.402;2022-07-19T08:49:26;101599.94;;;32.13;28.19
31299;BME280;17927;52.350;13.402;2022-07-19T08:51:52;101583.75;;;32.20;27.67
31299;BME280;17927;52.350;13.402;2022-07-19T08:54:18;101592.22;;;32.26;27.50
31299;BME280;17927;52.350;13.402;2022-07-19T08:56:44;101586.09;;;32.34;27.90
31299;BME280;17927;52.350;13.402;2022-07-19T08:59:28;101586.16;;;32.39;27.83
31299;BME280;17927;52.350;13.402;2022-07-19T09:01:55;101590.09;;;32.48;27.64
31299;BME280;17927;52.350;13.402;2022-07-19T09:04:22;101586.50;;;32.53;27.78
31299;BME280;17927;52.350;13.402;2022-07-19T09:09:20;101585.16;;;32.66;27.28
31299;BME280;17927;52.350;13.402;2022-07-19T09:11:48;101581.28;;;32.72;27.23
31299;BME280;17927;52.350;13.402;2022-07-19T09:14:17;101583.44;;;32.55;28.01
31299;BME280;17927;52.350;13.402;2022-07-19T09:16:55;101588.81;;;32.72;27.58
31299;BME280;17927;52.350;13.402;2022-07-19T09:19:22;101588.91;;;32.82;27.38
31299;BME280;17927;52.350;13.402;2022-07-19T09:22:10;101584.19;;;32.93;26.52
31299;BME280;17927;52.350;13.402;2022-07-19T09:24:41;101585.34;;;33.02;26.38
31299;BME280;17927;52.350;13.402;2022-07-19T09:27:07;101578.81;;;32.86;26.97
31299;BME280;17927;52.350;13.402;2022-07-19T09:29:35;101575.81;;;33.03;27.76
31299;BME280;17927;52.350;13.402;2022-07-19T09:32:12;101576.41;;;33.16;26.98
31299;BME280;17927;52.350;13.402;2022-07-19T09:34:41;101581.47;;;33.24;26.55
31299;BME280;17927;52.350;13.402;2022-07-19T09:37:11;101583.41;;;33.34;26.35
31299;BME280;17927;52.350;13.402;2022-07-19T09:39:37;101576.75;;;33.40;25.90
31299;BME280;17927;52.350;13.402;2022-07-19T09:42:07;101580.97;;;33.48;26.25
31299;BME280;17927;52.350;13.402;2022-07-19T09:44:32;101579.31;;;33.52;26.68
31299;BME280;17927;52.350;13.402;2022-07-19T09:46:58;101573.69;;;33.57;26.50
31299;BME280;17927;52.350;13.402;2022-07-19T09:49:23;101579.59;;;33.61;25.98
31299;BME280;17927;52.350;13.402;2022-07-19T09:51:50;101578.44;;;33.67;25.61
31299;BME280;17927;52.350;13.402;2022-07-19T09:54:17;101580.41;;;33.71;25.71
31299;BME280;17927;52.350;13.402;2022-07-19T09:56:44;101578.72;;;33.76;25.56
31299;BME280;17927;52.350;13.402;2022-07-19T09:59:10;101573.13;;;33.81;25.29
31299;BME280;17927;52.350;13.402;2022-07-19T10:01:36;101561.94;;;33.86;25.49
31299;BME280;17927;52.350;13.402;2022-07-19T10:04:11;101570.06;;;33.93;24.51
31299;BME280;17927;52.350;13.402;2022-07-19T10:06:37;101569.22;;;33.97;24.44
31299;BME280;17927;52.350;13.402;2022-07-19T10:09:04;101562.47;;;34.04;24.42
31299;BME280;17927;52.350;13.402;2022-07-19T10:11:30;101555.75;;;34.10;24.69
31299;BME280;17927;52.350;13.402;2022-07-19T10:13:56;101559.66;;;34.14;24.67
31299;BME280;17927;52.350;13.402;2022-07-19T10:16:26;101559.06;;;34.22;23.88
31299;BME280;17927;52.350;13.402;2022-07-19T10:19:04;101559.06;;;34.27;23.82
31299;BME280;17927;52.350;13.402;2022-07-19T10:21:33;101541.09;;;34.34;23.49
31299;BME280;17927;52.350;13.402;2022-07-19T10:23:58;101547.81;;;34.38;24.35
31299;BME280;17927;52.350;13.402;2022-07-19T10:26:40;101534.38;;;34.45;24.87
31299;BME280;17927;52.350;13.402;2022-07-19T10:29:07;101532.13;;;34.47;25.11
31299;BME280;17927;52.350;13.402;2022-07-19T10:31:33;101536.56;;;34.53;24.39
31299;BME280;17927;52.350;13.402;2022-07-19T10:34:05;101534.31;;;34.60;24.73
31299;BME280;17927;52.350;13.402;2022-07-19T10:36:34;101530.94;;;34.64;23.82
31299;BME280;17927;52.350;13.402;2022-07-19T10:47:20;101516.53;;;34.81;23.02
31299;BME280;17927;52.350;13.402;2022-07-19T10:49:46;101518.44;;;34.90;22.72
31299;BME280;17927;52.350;13.402;2022-07-19T10:57:37;101515.91;;;34.94;23.35
31299;BME280;17927;52.350;13.402;2022-07-19T11:00:23;101511.03;;;35.10;23.53
31299;BME280;17927;52.350;13.402;2022-07-19T11:05:47;101501.91;;;35.29;23.37
31299;BME280;17927;52.350;13.402;2022-07-19T11:08:12;101493.69;;;35.37;23.13
31299;BME280;17927;52.350;13.402;2022-07-19T11:10:38;101499.00;;;35.44;23.55
31299;BME280;17927;52.350;13.402;2022-07-19T11:13:03;101495.84;;;35.51;23.57
31299;BME280;17927;52.350;13.402;2022-07-19T11:15:28;101491.03;;;35.57;22.59
31299;BME280;17927;52.350;13.402;2022-07-19T11:17:56;101489.25;;;35.66;22.73
31299;BME280;17927;52.350;13.402;2022-07-19T11:20:24;101486.09;;;35.73;23.08
31299;BME280;17927;52.350;13.402;2022-07-19T11:22:50;101488.84;;;35.78;22.72
31299;BME280;17927;52.350;13.402;2022-07-19T11:25:16;101476.41;;;35.84;22.69
31299;BME280;17927;52.350;13.402;2022-07-19T11:27:47;101477.19;;;35.90;22.16
31299;BME280;17927;52.350;13.402;2022-07-19T11:30:13;101481.34;;;35.97;22.51
31299;BME280;17927;52.350;13.402;2022-07-19T11:32:40;101473.41;;;36.05;22.00
31299;BME280;17927;52.350;13.402;2022-07-19T11:35:10;101464.94;;;36.10;22.53
31299;BME280;17927;52.350;13.402;2022-07-19T11:37:38;101473.53;;;36.19;21.59
31299;BME280;17927;52.350;13.402;2022-07-19T11:40:05;101472.03;;;36.26;21.70
31299;BME280;17927;52.350;13.402;2022-07-19T11:42:36;101466.56;;;36.35;21.31
31299;BME280;17927;52.350;13.402;2022-07-19T11:45:19;101458.31;;;36.44;21.31
31299;BME280;17927;52.350;13.402;2022-07-19T11:47:49;101469.22;;;36.51;21.32
31299;BME280;17927;52.350;13.402;2022-07-19T11:50:17;101475.28;;;36.58;20.91
31299;BME280;17927;52.350;13.402;2022-07-19T11:52:52;101466.47;;;36.65;20.46
31299;BME280;17927;52.350;13.402;2022-07-19T11:55:20;101456.81;;;36.71;20.08
31299;BME280;17927;52.350;13.402;2022-07-19T11:57:47;101464.88;;;36.78;20.10
31299;BME280;17927;52.350;13.402;2022-07-19T12:00:13;101461.97;;;36.83;19.57
31299;BME280;17927;52.350;13.402;2022-07-19T12:03:02;101460.75;;;36.89;19.30
31299;BME280;17927;52.350;13.402;2022-07-19T12:05:34;101453.41;;;36.93;19.48
31299;BME280;17927;52.350;13.402;2022-07-19T12:08:03;101461.16;;;37.01;19.21
31299;BME280;17927;52.350;13.402;2022-07-19T12:10:36;101467.25;;;37.09;19.67
31299;BME280;17927;52.350;13.402;2022-07-19T12:13:04;101465.50;;;37.13;19.50
31299;BME280;17927;52.350;13.402;2022-07-19T12:16:08;101463.09;;;37.20;19.84
31299;BME280;17927;52.350;13.402;2022-07-19T12:18:56;101461.88;;;37.26;19.25
31299;BME280;17927;52.350;13.402;2022-07-19T12:24:07;101462.06;;;37.49;21.34
31299;BME280;17927;52.350;13.402;2022-07-19T12:26:33;101455.19;;;37.55;20.52
31299;BME280;17927;52.350;13.402;2022-07-19T12:28:58;101458.34;;;37.68;20.12
31299;BME280;17927;52.350;13.402;2022-07-19T12:31:23;101456.69;;;37.81;20.23
31299;BME280;17927;52.350;13.402;2022-07-19T12:33:59;101450.97;;;38.00;20.08
31299;BME280;17927;52.350;13.402;2022-07-19T12:36:35;101451.56;;;38.24;20.66
31299;BME280;17927;52.350;13.402;2022-07-19T12:39:01;101449.47;;;38.58;21.01
31299;BME280;17927;52.350;13.402;2022-07-19T12:41:26;101457.28;;;38.98;20.30
31299;BME280;17927;52.350;13.402;2022-07-19T12:43:52;101440.97;;;39.40;19.99
31299;BME280;17927;52.350;13.402;2022-07-19T12:46:17;101445.72;;;39.85;18.96
31299;BME280;17927;52.350;13.402;2022-07-19T12:48:42;101440.69;;;40.31;19.44
31299;BME280;17927;52.350;13.402;2022-07-19T12:51:07;101448.91;;;40.77;18.94
31299;BME280;17927;52.350;13.402;2022-07-19T12:53:32;101451.03;;;41.24;18.30
31299;BME280;17927;52.350;13.402;2022-07-19T12:55:58;101438.91;;;41.71;17.60
31299;BME280;17927;52.350;13.402;2022-07-19T12:58:23;101434.34;;;42.18;17.38